createdAt,value
2018-11-02T00:00:46.758Z,80.87
2018-11-02T00:03:16.410Z,80.86
2018-11-02T00:05:46.323Z,81.29
2018-11-02T00:08:15.964Z,81.06
2018-11-02T00:10:45.695Z,81.48
2018-11-02T00:13:15.349Z,81.13
2018-11-02T00:15:45.060Z,80.94
2018-11-02T00:18:14.712Z,81.22
2018-11-02T00:20:44.396Z,81.36
2018-11-02T00:23:14.039Z,81.62
2018-11-02T00:25:43.732Z,82.15
2018-11-02T00:28:13.411Z,81.69
2018-11-02T00:30:43.105Z,81.14
2018-11-02T00:33:12.763Z,81.60
2018-11-02T00:35:42.437Z,81.65
2018-11-02T00:38:12.105Z,81.52
2018-11-02T00:40:41.789Z,81.28
2018-11-02T00:43:11.436Z,81.61
2018-11-02T00:45:41.110Z,81.43
2018-11-02T00:48:10.780Z,81.87
2018-11-02T00:50:40.480Z,81.79
2018-11-02T00:53:10.214Z,81.60
2018-11-02T00:55:39.895Z,81.69
2018-11-02T00:58:09.567Z,81.70
2018-11-02T01:00:39.224Z,81.43
2018-11-02T01:03:08.894Z,82.14
2018-11-02T01:05:39.010Z,81.77
2018-11-02T01:08:08.716Z,82.13
2018-11-02T01:10:38.398Z,81.86
2018-11-02T01:13:08.024Z,82.22
2018-11-02T01:15:37.704Z,82.01
2018-11-02T01:18:07.349Z,82.18
2018-11-02T01:20:37.336Z,82.71
2018-11-02T01:23:07.015Z,81.47
2018-11-02T01:25:36.704Z,81.77
2018-11-02T01:28:06.404Z,81.89
2018-11-02T01:30:36.092Z,81.57
2018-11-02T01:33:05.961Z,82.10
2018-11-02T01:35:35.648Z,82.01
2018-11-02T01:38:05.324Z,81.90
2018-11-02T01:40:34.979Z,82.06
2018-11-02T01:43:04.603Z,81.85
2018-11-02T01:45:34.256Z,81.64
2018-11-02T01:48:03.921Z,81.48
2018-11-02T01:50:33.596Z,81.47
2018-11-02T01:53:03.241Z,82.10
2018-11-02T01:55:32.908Z,81.75
2018-11-02T01:58:02.544Z,82.18
2018-11-02T02:00:32.215Z,81.94
2018-11-02T02:03:01.845Z,81.63
2018-11-02T02:05:31.594Z,81.55
2018-11-02T02:08:01.248Z,82.17
2018-11-02T02:10:30.924Z,82.45
2018-11-02T02:13:00.599Z,81.46
2018-11-02T02:15:30.309Z,81.87
2018-11-02T02:17:59.955Z,82.50
2018-11-02T02:20:29.620Z,82.56
2018-11-02T02:22:59.272Z,82.19
2018-11-02T02:25:28.936Z,82.07
2018-11-02T02:27:58.608Z,81.71
2018-11-02T02:30:28.288Z,81.70
2018-11-02T02:32:57.932Z,81.55
2018-11-02T02:35:27.627Z,81.89
2018-11-02T02:37:57.292Z,81.37
2018-11-02T02:40:26.943Z,81.90
2018-11-02T02:42:56.631Z,82.32
2018-11-02T02:45:26.311Z,81.53
2018-11-02T02:47:55.947Z,81.70
2018-11-02T02:52:58.649Z,81.80
2018-11-02T02:55:28.311Z,81.57
2018-11-02T02:57:57.932Z,81.51
2018-11-02T03:00:27.616Z,81.76
2018-11-02T03:02:57.260Z,82.22
2018-11-02T03:05:26.936Z,81.72
2018-11-02T03:07:56.652Z,82.20
2018-11-02T03:10:26.380Z,81.97
2018-11-02T03:12:55.984Z,82.41
2018-11-02T03:15:25.652Z,82.31
2018-11-02T03:17:55.306Z,81.76
2018-11-02T03:20:24.984Z,81.84
2018-11-02T03:22:54.635Z,81.66
2018-11-02T03:25:24.289Z,81.76
2018-11-02T03:27:53.944Z,81.36
2018-11-02T03:30:23.672Z,82.09
2018-11-02T03:32:53.331Z,82.42
2018-11-02T03:35:22.962Z,81.88
2018-11-02T03:37:52.612Z,81.80
2018-11-02T03:40:22.263Z,80.84
2018-11-02T03:42:51.896Z,81.37
2018-11-02T03:45:21.589Z,81.87
2018-11-02T03:47:51.469Z,81.10
2018-11-02T03:50:21.365Z,81.20
2018-11-02T03:52:51.027Z,81.15
2018-11-02T03:55:20.723Z,80.99
2018-11-02T03:57:50.384Z,81.32
2018-11-02T04:00:20.184Z,81.37
2018-11-02T04:02:49.833Z,81.68
2018-11-02T04:05:19.507Z,80.85
2018-11-02T04:07:49.133Z,81.27
2018-11-02T04:10:18.782Z,81.40
2018-11-02T04:12:48.405Z,81.65
2018-11-02T04:15:18.071Z,81.05
2018-11-02T04:17:47.708Z,81.16
2018-11-02T04:20:17.380Z,81.05
2018-11-02T04:22:47.042Z,81.56
2018-11-02T04:25:16.724Z,81.21
2018-11-02T04:27:46.361Z,81.04
2018-11-02T04:30:16.034Z,81.40
2018-11-02T04:32:45.674Z,81.00
2018-11-02T04:35:15.357Z,81.62
2018-11-02T04:37:44.988Z,81.10
2018-11-02T04:40:14.660Z,81.19
2018-11-02T04:42:44.281Z,81.00
2018-11-02T04:45:13.968Z,80.04
2018-11-02T04:47:43.597Z,80.28
2018-11-02T04:50:13.271Z,80.03
2018-11-02T04:52:42.964Z,79.89
2018-11-02T04:55:12.621Z,79.74
2018-11-02T04:57:42.281Z,80.13
2018-11-02T05:00:11.957Z,80.43
2018-11-02T05:02:41.596Z,80.84
2018-11-02T05:05:11.257Z,79.88
2018-11-02T05:07:40.892Z,80.74
2018-11-02T05:10:10.978Z,80.69
2018-11-02T05:12:40.671Z,80.77
2018-11-02T05:15:10.348Z,80.20
2018-11-02T05:17:40.018Z,80.44
2018-11-02T05:20:10.951Z,80.55
2018-11-02T05:22:40.631Z,80.92
2018-11-02T05:25:10.751Z,80.06
2018-11-02T05:27:40.412Z,80.87
2018-11-02T05:30:10.949Z,80.76
2018-11-02T05:32:40.979Z,80.70
2018-11-02T05:35:10.659Z,80.57
2018-11-02T05:37:40.317Z,80.29
2018-11-02T05:40:10.300Z,80.42
2018-11-02T05:42:39.967Z,80.79
2018-11-02T05:45:09.745Z,80.03
2018-11-02T05:47:39.417Z,80.45
2018-11-02T05:50:09.116Z,80.13
2018-11-02T05:52:38.772Z,79.83
2018-11-02T05:55:09.170Z,79.91
2018-11-02T05:57:39.148Z,79.77
2018-11-02T06:00:09.649Z,80.85
2018-11-02T06:02:39.309Z,80.13
2018-11-02T06:05:09.033Z,80.45
2018-11-02T06:07:39.175Z,80.25
2018-11-02T06:10:09.013Z,80.61
2018-11-02T06:12:38.675Z,80.03
2018-11-02T06:15:08.340Z,80.50
2018-11-02T06:17:38.044Z,80.29
2018-11-02T06:20:08.483Z,80.61
2018-11-02T06:22:38.440Z,80.32
2018-11-02T06:25:08.428Z,80.76
2018-11-02T06:27:38.104Z,80.79
2018-11-02T06:30:08.902Z,80.91
2018-11-02T06:32:38.657Z,81.12
2018-11-02T06:35:09.196Z,81.03
2018-11-02T06:37:38.886Z,80.76
2018-11-02T06:40:08.680Z,81.24
2018-11-02T06:42:38.397Z,81.17
2018-11-02T06:45:09.549Z,81.51
2018-11-02T06:47:39.513Z,80.76
2018-11-02T06:50:09.219Z,81.29
2018-11-02T06:52:38.852Z,81.64
2018-11-02T06:55:09.376Z,80.85
2018-11-02T06:57:39.027Z,80.95
2018-11-02T07:00:12.621Z,81.86
2018-11-02T07:02:42.514Z,81.48
2018-11-02T07:05:12.261Z,81.00
2018-11-02T07:07:42.106Z,81.05
2018-11-02T07:10:11.595Z,81.43
2018-11-02T07:12:41.266Z,81.69
2018-11-02T07:15:10.911Z,81.81
2018-11-02T07:17:40.553Z,81.56
2018-11-02T07:20:10.249Z,81.12
2018-11-02T07:22:39.906Z,81.27
2018-11-02T07:25:09.633Z,81.30
2018-11-02T07:27:39.332Z,81.09
2018-11-02T07:30:10.178Z,80.19
2018-11-02T07:32:39.883Z,80.97
2018-11-02T07:35:10.624Z,80.50
2018-11-02T07:37:40.327Z,81.01
2018-11-02T07:40:11.196Z,80.57
2018-11-02T07:42:41.234Z,80.07
2018-11-02T07:45:11.215Z,79.24
2018-11-02T07:47:40.983Z,78.62
2018-11-02T07:50:11.908Z,78.93
2018-11-02T07:52:41.792Z,78.43
2018-11-02T07:55:13.088Z,77.53
2018-11-02T07:57:42.740Z,77.37
2018-11-02T08:00:14.761Z,77.72
2018-11-02T08:02:45.603Z,77.32
2018-11-02T08:05:15.972Z,75.99
2018-11-02T08:07:45.682Z,75.70
2018-11-02T08:10:15.362Z,75.18
2018-11-02T08:12:44.995Z,74.82
2018-11-02T08:15:14.620Z,74.92
2018-11-02T08:17:44.388Z,74.75
2018-11-02T08:20:14.307Z,73.82
2018-11-02T08:22:44.440Z,74.04
2018-11-02T08:25:14.119Z,73.80
2018-11-02T08:27:43.738Z,74.37
2018-11-02T08:30:13.448Z,74.13
2018-11-02T08:32:43.089Z,73.45
2018-11-02T08:35:13.743Z,74.02
2018-11-02T08:37:43.591Z,73.48
2018-11-02T08:40:13.961Z,74.26
2018-11-02T08:42:44.008Z,74.98
2018-11-02T08:45:13.692Z,75.40
2018-11-02T08:47:43.332Z,74.08
2018-11-02T08:50:13.657Z,74.36
2018-11-02T08:52:43.617Z,74.12
2018-11-02T08:55:13.350Z,74.17
2018-11-02T08:57:43.109Z,73.68
2018-11-02T09:00:13.641Z,73.82
2018-11-02T09:02:43.272Z,74.81
2018-11-02T09:05:12.943Z,73.52
2018-11-02T09:07:42.624Z,74.71
2018-11-02T09:10:12.944Z,74.62
2018-11-02T09:12:42.623Z,74.02
2018-11-02T09:15:12.269Z,72.41
2018-11-02T09:17:41.897Z,72.08
2018-11-02T09:20:11.596Z,73.48
2018-11-02T09:22:41.392Z,73.34
2018-11-02T09:25:11.240Z,73.62
2018-11-02T09:27:40.924Z,72.91
2018-11-02T09:30:13.828Z,72.14
2018-11-02T09:32:43.860Z,73.66
2018-11-02T09:35:14.230Z,73.80
2018-11-02T09:37:44.219Z,72.13
2018-11-02T09:40:13.877Z,72.63
2018-11-02T09:42:43.592Z,71.71
2018-11-02T09:45:14.413Z,72.37
2018-11-02T09:47:44.442Z,72.11
2018-11-02T09:50:14.157Z,72.70
2018-11-02T09:52:43.826Z,72.96
2018-11-02T09:55:14.988Z,73.10
2018-11-02T09:57:45.596Z,74.08
2018-11-02T10:00:15.568Z,73.74
2018-11-02T10:02:45.232Z,72.25
2018-11-02T10:05:14.877Z,72.62
2018-11-02T10:07:44.601Z,73.74
2018-11-02T10:10:14.280Z,73.01
2018-11-02T10:12:43.913Z,72.98
2018-11-02T10:15:14.948Z,72.20
2018-11-02T10:17:44.611Z,72.63
2018-11-02T10:20:14.309Z,72.26
2018-11-02T10:22:43.977Z,71.99
2018-11-02T10:25:13.626Z,71.68
2018-11-02T10:27:44.224Z,72.09
2018-11-02T10:30:14.825Z,72.55
2018-11-02T10:32:46.317Z,73.44
2018-11-02T10:35:16.122Z,72.02
2018-11-02T10:37:46.111Z,72.89
2018-11-02T10:40:17.148Z,72.29
2018-11-02T10:42:58.524Z,73.15
2018-11-02T10:45:31.649Z,73.23
2018-11-02T10:48:02.158Z,72.61
2018-11-02T10:50:31.817Z,73.51
2018-11-02T10:53:01.479Z,72.51
2018-11-02T10:55:31.192Z,73.16
2018-11-02T10:58:00.880Z,72.88
2018-11-02T11:00:35.994Z,73.74
2018-11-02T11:03:05.892Z,72.61
2018-11-02T11:05:35.667Z,71.75
2018-11-02T11:08:05.345Z,71.92
2018-11-02T11:10:35.070Z,72.20
2018-11-02T11:13:05.182Z,71.40
2018-11-02T11:15:34.485Z,71.12
2018-11-02T11:18:04.228Z,71.18
2018-11-02T11:20:33.909Z,72.79
2018-11-02T11:23:03.596Z,71.37
2018-11-02T11:25:33.313Z,71.31
2018-11-02T11:28:02.989Z,71.47
2018-11-02T11:30:32.640Z,70.82
2018-11-02T11:33:02.357Z,71.92
2018-11-02T11:35:32.029Z,71.58
2018-11-02T11:38:01.712Z,71.81
2018-11-02T11:40:31.456Z,71.68
2018-11-02T11:43:01.135Z,70.77
2018-11-02T11:45:30.828Z,70.93
2018-11-02T11:48:00.580Z,70.54
2018-11-02T11:50:30.260Z,70.60
2018-11-02T11:52:59.974Z,71.45
2018-11-02T11:55:29.719Z,71.33
2018-11-02T11:57:59.399Z,69.72
2018-11-02T12:00:29.139Z,69.68
2018-11-02T12:02:58.819Z,70.83
2018-11-02T12:05:28.572Z,69.71
2018-11-02T12:07:58.321Z,69.40
2018-11-02T12:10:28.081Z,69.62
2018-11-02T12:12:57.687Z,68.45
2018-11-02T12:15:27.445Z,68.91
2018-11-02T12:17:57.160Z,69.51
2018-11-02T12:20:28.256Z,69.69
2018-11-02T12:23:00.391Z,69.67
2018-11-02T12:25:30.205Z,69.39
2018-11-02T12:27:59.945Z,69.31
2018-11-02T12:30:29.620Z,69.23
2018-11-02T12:32:59.312Z,69.30
2018-11-02T12:35:29.000Z,69.52
2018-11-02T12:37:58.669Z,70.22
2018-11-02T12:40:28.367Z,69.93
2018-11-02T12:42:58.004Z,69.68
2018-11-02T12:45:27.656Z,70.06
2018-11-02T12:47:57.446Z,69.74
2018-11-02T12:50:28.281Z,69.32
2018-11-02T12:52:59.217Z,69.38
2018-11-02T12:55:28.880Z,69.57
2018-11-02T12:57:58.521Z,69.31
2018-11-02T13:00:28.939Z,69.78
2018-11-02T13:02:58.856Z,71.02
2018-11-02T13:05:28.552Z,70.05
2018-11-02T13:07:58.212Z,70.68
2018-11-02T13:10:27.842Z,69.05
2018-11-02T13:12:57.555Z,68.84
2018-11-02T13:15:27.239Z,70.05
2018-11-02T13:17:56.885Z,69.41
2018-11-02T13:20:26.578Z,70.54
2018-11-02T13:22:56.256Z,71.09
2018-11-02T13:25:25.955Z,70.90
2018-11-02T13:27:55.672Z,69.35
2018-11-02T13:30:25.500Z,69.18
2018-11-02T13:32:54.992Z,68.59
2018-11-02T13:35:24.676Z,67.54
2018-11-02T13:37:54.312Z,65.98
2018-11-02T13:40:23.984Z,64.46
2018-11-02T13:42:53.701Z,64.41
2018-11-02T13:45:23.332Z,65.13
2018-11-02T13:47:52.964Z,65.42
2018-11-02T13:50:22.687Z,66.79
2018-11-02T13:52:52.701Z,66.34
2018-11-02T13:55:22.416Z,67.63
2018-11-02T13:57:52.073Z,67.79
2018-11-02T14:00:21.814Z,68.49
2018-11-02T14:02:51.499Z,68.80
2018-11-02T14:05:21.144Z,67.54
2018-11-02T14:07:50.800Z,67.76
2018-11-02T14:10:20.477Z,68.45
2018-11-02T14:12:50.124Z,68.99
2018-11-02T14:15:19.760Z,69.30
2018-11-02T14:17:49.466Z,69.42
2018-11-02T14:20:19.105Z,69.64
2018-11-02T14:22:48.752Z,70.27
2018-11-02T14:25:18.528Z,70.79
2018-11-02T14:27:48.176Z,70.99
2018-11-02T14:30:18.348Z,69.51
2018-11-02T14:32:48.743Z,70.24
2018-11-02T14:35:18.435Z,69.29
2018-11-02T14:37:48.085Z,68.87
2018-11-02T14:40:17.734Z,68.69
2018-11-02T14:42:47.416Z,67.04
2018-11-02T14:45:17.062Z,66.51
2018-11-02T14:47:47.172Z,65.53
2018-11-02T14:50:16.823Z,64.63
2018-11-02T14:52:46.462Z,65.85
2018-11-02T14:55:16.136Z,63.27
2018-11-02T14:57:45.807Z,63.73
2018-11-02T15:00:15.452Z,64.83
2018-11-02T15:02:45.124Z,66.31
2018-11-02T15:05:14.839Z,66.86
2018-11-02T15:07:44.629Z,66.71
2018-11-02T15:10:14.332Z,67.99
2018-11-02T15:12:43.977Z,68.22
2018-11-02T15:15:13.628Z,68.53
2018-11-02T15:17:43.402Z,68.34
2018-11-02T15:20:14.565Z,69.46
2018-11-02T15:22:44.280Z,69.39
2018-11-02T15:25:13.974Z,68.94
2018-11-02T15:27:43.633Z,69.97
2018-11-02T15:30:14.453Z,70.14
2018-11-02T15:32:45.246Z,69.22
2018-11-02T15:35:14.981Z,69.45
2018-11-02T15:37:44.746Z,70.19
2018-11-02T15:40:14.756Z,70.24
2018-11-02T15:42:44.422Z,70.72
2018-11-02T15:45:15.390Z,71.91
2018-11-02T15:47:45.713Z,71.10
2018-11-02T15:50:15.424Z,71.73
2018-11-02T15:52:45.072Z,72.38
2018-11-02T15:55:14.717Z,72.32
2018-11-02T15:57:44.392Z,72.28
2018-11-02T16:00:15.905Z,72.88
2018-11-02T16:02:46.971Z,72.67
2018-11-02T16:05:16.632Z,72.89
2018-11-02T16:07:46.362Z,72.38
2018-11-02T16:10:16.064Z,72.34
2018-11-02T16:12:45.800Z,72.36
2018-11-02T16:15:15.536Z,72.68
2018-11-02T16:17:45.218Z,72.60
2018-11-02T16:20:15.741Z,73.29
2018-11-02T16:22:45.756Z,72.64
2018-11-02T16:25:15.556Z,72.83
2018-11-02T16:27:45.236Z,73.72
2018-11-02T16:30:14.883Z,73.60
2018-11-02T16:32:44.588Z,73.23
2018-11-02T16:35:14.233Z,73.38
2018-11-02T16:37:43.901Z,74.10
2018-11-02T16:40:15.328Z,73.94
2018-11-02T16:42:45.752Z,74.17
2018-11-02T16:45:15.873Z,73.79
2018-11-02T16:47:45.730Z,73.87
2018-11-02T16:50:16.135Z,74.47
2018-11-02T16:52:45.779Z,74.41
2018-11-02T16:55:15.452Z,74.69
2018-11-02T16:57:45.311Z,74.54
2018-11-02T17:00:16.675Z,74.99
2018-11-02T17:02:47.545Z,75.99
2018-11-02T17:05:17.545Z,76.05
2018-11-02T17:07:47.219Z,75.99
2018-11-02T17:10:16.948Z,76.15
2018-11-02T17:12:46.679Z,76.15
2018-11-02T17:15:16.370Z,76.43
2018-11-02T17:17:46.028Z,76.65
2018-11-02T17:20:18.008Z,76.79
2018-11-02T17:22:47.975Z,77.17
2018-11-02T17:25:17.658Z,77.05
2018-11-02T17:27:47.293Z,76.70
2018-11-02T17:30:18.202Z,77.00
2018-11-02T17:32:47.885Z,76.19
2018-11-02T17:35:17.527Z,76.64
2018-11-02T17:37:47.248Z,76.96
2018-11-02T17:40:16.976Z,76.99
2018-11-02T17:42:46.668Z,76.96
2018-11-02T17:45:16.353Z,76.48
2018-11-02T17:47:46.092Z,76.43
2018-11-02T17:50:16.239Z,76.27
2018-11-02T17:52:45.877Z,76.97
2018-11-02T17:55:15.558Z,77.11
2018-11-02T17:57:45.264Z,77.80
2018-11-02T18:00:15.320Z,77.60
2018-11-02T18:02:44.968Z,77.62
2018-11-02T18:05:14.669Z,77.57
2018-11-02T18:07:44.362Z,77.75
2018-11-02T18:10:14.410Z,77.72
2018-11-02T18:12:44.092Z,77.97
2018-11-02T18:15:14.153Z,77.37
2018-11-02T18:17:43.819Z,77.69
2018-11-02T18:20:15.136Z,78.67
2018-11-02T18:22:44.897Z,78.96
2018-11-02T18:25:14.615Z,79.32
2018-11-02T18:27:44.572Z,78.33
2018-11-02T18:30:14.232Z,78.35
2018-11-02T18:32:43.888Z,78.12
2018-11-02T18:35:13.609Z,78.46
2018-11-02T18:37:43.261Z,78.76
2018-11-02T18:40:13.966Z,79.45
2018-11-02T18:42:43.936Z,79.58
2018-11-02T18:45:14.766Z,79.21
2018-11-02T18:47:46.529Z,78.72
2018-11-02T18:50:17.620Z,79.33
2018-11-02T18:52:47.902Z,79.87
2018-11-02T18:55:17.968Z,79.52
2018-11-02T18:57:47.660Z,79.38
2018-11-02T19:00:17.892Z,79.16
2018-11-02T19:02:47.560Z,79.22
2018-11-02T19:05:18.456Z,79.12
2018-11-02T19:07:48.131Z,78.97
2018-11-02T19:10:17.817Z,78.85
2018-11-02T19:12:47.515Z,80.08
2018-11-02T19:15:18.489Z,79.74
2018-11-02T19:17:48.200Z,79.55
2018-11-02T19:20:17.889Z,79.19
2018-11-02T19:22:47.564Z,79.64
2018-11-02T19:25:17.601Z,79.09
2018-11-02T19:27:47.439Z,80.22
2018-11-02T19:30:17.504Z,80.43
2018-11-02T19:32:47.188Z,80.08
2018-11-02T19:35:17.030Z,79.85
2018-11-02T19:37:46.590Z,81.76
2018-11-02T19:40:16.961Z,81.81
2018-11-02T19:42:46.664Z,80.76
2018-11-02T19:45:16.320Z,81.51
2018-11-02T19:48:06.100Z,81.68
2018-11-02T19:50:35.804Z,81.29
2018-11-02T19:53:05.696Z,81.48
2018-11-02T19:55:35.355Z,80.97
2018-11-02T19:58:05.075Z,81.27
2018-11-02T20:00:34.761Z,81.32
2018-11-02T20:03:04.492Z,81.25
2018-11-02T20:05:34.137Z,81.60
2018-11-02T20:08:04.233Z,80.24
2018-11-02T20:10:33.885Z,80.51
2018-11-02T20:13:03.608Z,81.21
2018-11-02T20:15:33.257Z,81.34
2018-11-02T20:18:03.000Z,81.85
2018-11-02T20:20:32.659Z,81.43
2018-11-02T20:23:02.401Z,81.15
2018-11-02T20:25:32.048Z,81.34
2018-11-02T20:28:01.976Z,81.74
2018-11-02T20:30:31.635Z,82.17
2018-11-02T20:33:01.296Z,81.90
2018-11-02T20:35:30.963Z,82.20
2018-11-02T20:38:00.679Z,81.88
2018-11-02T20:40:30.338Z,81.88
2018-11-02T20:43:00.017Z,81.43
2018-11-02T20:45:29.720Z,81.98
2018-11-02T20:47:59.517Z,81.35
2018-11-02T20:50:29.183Z,81.82
2018-11-02T20:52:58.820Z,81.61
2018-11-02T20:55:28.552Z,81.93
2018-11-02T20:57:58.216Z,81.77
2018-11-02T21:00:27.892Z,81.89
2018-11-02T21:02:57.596Z,82.09
2018-11-02T21:05:27.333Z,82.15
2018-11-02T21:07:57.414Z,82.70
2018-11-02T21:10:27.048Z,82.30
2018-11-02T21:12:56.688Z,82.12
2018-11-02T21:15:26.485Z,82.11
2018-11-02T21:17:56.152Z,82.71
2018-11-02T21:20:26.669Z,81.82
2018-11-02T21:22:56.390Z,82.39
2018-11-02T21:25:26.613Z,82.04
2018-11-02T21:27:56.360Z,82.39
2018-11-02T21:30:26.912Z,82.32
2018-11-02T21:32:56.932Z,82.62
2018-11-02T21:35:26.637Z,82.47
2018-11-02T21:37:56.322Z,82.16
2018-11-02T21:40:26.789Z,82.23
2018-11-02T21:42:56.444Z,82.24
2018-11-02T21:45:26.211Z,82.76
2018-11-02T21:47:55.877Z,81.94
2018-11-02T21:50:25.762Z,82.33
2018-11-02T21:52:55.468Z,82.92
2018-11-02T21:55:25.180Z,82.62
2018-11-02T21:57:54.828Z,82.15
2018-11-02T22:00:24.610Z,82.48
2018-11-02T22:02:54.261Z,83.01
2018-11-02T22:05:24.076Z,83.44
2018-11-02T22:07:53.844Z,82.83
2018-11-02T22:10:23.516Z,83.00
2018-11-02T22:12:53.240Z,82.60
2018-11-02T22:15:22.909Z,82.87
2018-11-02T22:17:52.656Z,82.13
2018-11-02T22:20:22.392Z,82.42
2018-11-02T22:22:52.064Z,81.97
2018-11-02T22:25:21.714Z,82.69
2018-11-02T22:27:51.440Z,82.26
2018-11-02T22:30:21.117Z,82.61
2018-11-02T22:32:50.753Z,81.77
2018-11-02T22:35:20.443Z,82.51
2018-11-02T22:37:50.145Z,82.45
2018-11-02T22:40:19.856Z,81.63
2018-11-02T22:42:49.553Z,81.85
2018-11-02T22:45:19.214Z,81.96
2018-11-02T22:47:54.052Z,82.62
2018-11-02T22:50:23.730Z,81.81
2018-11-02T22:52:53.387Z,81.71
2018-11-02T22:55:23.100Z,81.20
2018-11-02T22:57:52.747Z,80.95
2018-11-02T23:00:22.477Z,81.94
2018-11-02T23:02:52.201Z,81.52
2018-11-02T23:05:21.866Z,81.83
2018-11-02T23:07:51.566Z,81.52
2018-11-02T23:10:21.276Z,81.01
2018-11-02T23:12:50.953Z,81.27
2018-11-02T23:15:20.636Z,82.29
2018-11-02T23:17:50.324Z,81.81
2018-11-02T23:20:19.998Z,82.45
2018-11-02T23:22:49.741Z,81.91
2018-11-02T23:25:19.428Z,81.65
2018-11-02T23:27:49.112Z,81.65
2018-11-02T23:30:18.778Z,81.89
2018-11-02T23:32:48.488Z,81.83
2018-11-02T23:35:18.193Z,81.07
2018-11-02T23:37:47.837Z,80.77
2018-11-02T23:40:17.552Z,81.23
2018-11-02T23:42:47.200Z,81.27
2018-11-02T23:45:16.921Z,81.56
2018-11-02T23:47:51.841Z,81.51
2018-11-02T23:50:21.516Z,80.94
2018-11-02T23:52:51.237Z,81.19
2018-11-02T23:55:20.912Z,81.96
2018-11-02T23:57:50.615Z,81.44
